sensor_id;sensor_type;location;lat;lon;timestamp;P1;durP1;ratioP1;P2;durP2;ratioP2
2119;SDS011;1066;52.540;13.420;2023-08-07T00:02:53;3.77;;;3.17;;
2119;SDS011;1066;52.540;13.420;2023-08-07T00:06:12;3.10;;;2.90;;
2119;SDS011;1066;52.540;13.420;2023-08-07T00:09:30;2.50;;;2.30;;
2119;SDS011;1066;52.540;13.420;2023-08-07T00:12:49;3.27;;;2.60;;
2119;SDS011;1066;52.540;13.420;2023-08-07T00:16:07;3.20;;;2.80;;
2119;SDS011;1066;52.540;13.420;2023-08-07T00:19:25;3.67;;;3.00;;
2119;SDS011;1066;52.540;13.420;2023-08-07T00:22:43;4.97;;;3.40;;
2119;SDS011;1066;52.540;13.420;2023-08-07T00:26:00;4.07;;;3.67;;
2119;SDS011;1066;52.540;13.420;2023-08-07T00:29:18;4.83;;;3.37;;
2119;SDS011;1066;52.540;13.420;2023-08-07T00:32:36;5.03;;;3.50;;
2119;SDS011;1066;52.540;13.420;2023-08-07T00:35:54;3.57;;;3.27;;
2119;SDS011;1066;52.540;13.420;2023-08-07T00:39:12;5.53;;;3.10;;
2119;SDS011;1066;52.540;13.420;2023-08-07T00:42:30;7.23;;;4.30;;
2119;SDS011;1066;52.540;13.420;2023-08-07T00:45:48;4.00;;;3.60;;
2119;SDS011;1066;52.540;13.420;2023-08-07T00:49:07;5.20;;;3.73;;
2119;SDS011;1066;52.540;13.420;2023-08-07T00:52:25;3.20;;;2.83;;
2119;SDS011;1066;52.540;13.420;2023-08-07T00:55:43;3.33;;;3.03;;
2119;SDS011;1066;52.540;13.420;2023-08-07T00:59:01;2.83;;;2.63;;
2119;SDS011;1066;52.540;13.420;2023-08-07T01:02:19;3.40;;;3.10;;
2119;SDS011;1066;52.540;13.420;2023-08-07T01:05:38;4.00;;;3.20;;
2119;SDS011;1066;52.540;13.420;2023-08-07T01:08:57;4.83;;;3.20;;
2119;SDS011;1066;52.540;13.420;2023-08-07T01:12:15;2.93;;;2.73;;
2119;SDS011;1066;52.540;13.420;2023-08-07T01:15:37;4.20;;;3.30;;
2119;SDS011;1066;52.540;13.420;2023-08-07T01:19:19;3.90;;;2.50;;
2119;SDS011;1066;52.540;13.420;2023-08-07T01:22:39;3.80;;;2.83;;
2119;SDS011;1066;52.540;13.420;2023-08-07T01:25:57;5.83;;;3.27;;
2119;SDS011;1066;52.540;13.420;2023-08-07T01:29:17;8.27;;;3.13;;
2119;SDS011;1066;52.540;13.420;2023-08-07T01:32:59;6.10;;;3.27;;
2119;SDS011;1066;52.540;13.420;2023-08-07T01:36:22;5.90;;;2.90;;
2119;SDS011;1066;52.540;13.420;2023-08-07T01:39:40;4.97;;;3.73;;
2119;SDS011;1066;52.540;13.420;2023-08-07T01:42:59;3.33;;;3.03;;
2119;SDS011;1066;52.540;13.420;2023-08-07T01:46:17;5.23;;;3.30;;
2119;SDS011;1066;52.540;13.420;2023-08-07T01:49:35;6.33;;;3.53;;
2119;SDS011;1066;52.540;13.420;2023-08-07T01:52:53;6.07;;;3.37;;
2119;SDS011;1066;52.540;13.420;2023-08-07T01:56:12;4.13;;;3.40;;
2119;SDS011;1066;52.540;13.420;2023-08-07T01:59:30;4.10;;;3.13;;
2119;SDS011;1066;52.540;13.420;2023-08-07T02:02:48;3.53;;;3.23;;
2119;SDS011;1066;52.540;13.420;2023-08-07T02:06:06;4.03;;;3.57;;
2119;SDS011;1066;52.540;13.420;2023-08-07T02:09:24;6.80;;;5.03;;
2119;SDS011;1066;52.540;13.420;2023-08-07T02:12:42;24.13;;;21.67;;
2119;SDS011;1066;52.540;13.420;2023-08-07T02:15:59;21.50;;;16.20;;
2119;SDS011;1066;52.540;13.420;2023-08-07T02:19:17;31.83;;;19.93;;
2119;SDS011;1066;52.540;13.420;2023-08-07T02:22:36;12.37;;;9.07;;
2119;SDS011;1066;52.540;13.420;2023-08-07T02:25:54;24.50;;;17.07;;
2119;SDS011;1066;52.540;13.420;2023-08-07T02:29:12;24.40;;;18.60;;
2119;SDS011;1066;52.540;13.420;2023-08-07T02:32:30;10.77;;;9.67;;
2119;SDS011;1066;52.540;13.420;2023-08-07T02:35:48;22.23;;;19.47;;
2119;SDS011;1066;52.540;13.420;2023-08-07T02:39:06;13.10;;;11.10;;
2119;SDS011;1066;52.540;13.420;2023-08-07T02:42:24;11.07;;;9.27;;
2119;SDS011;1066;52.540;13.420;2023-08-07T02:45:42;12.50;;;9.50;;
2119;SDS011;1066;52.540;13.420;2023-08-07T02:49:01;16.03;;;11.20;;
2119;SDS011;1066;52.540;13.420;2023-08-07T02:52:18;12.83;;;11.17;;
2119;SDS011;1066;52.540;13.420;2023-08-07T02:55:36;8.40;;;7.57;;
2119;SDS011;1066;52.540;13.420;2023-08-07T02:58:55;8.30;;;7.10;;
2119;SDS011;1066;52.540;13.420;2023-08-07T03:02:12;11.93;;;8.70;;
2119;SDS011;1066;52.540;13.420;2023-08-07T03:05:30;12.23;;;9.60;;
2119;SDS011;1066;52.540;13.420;2023-08-07T03:08:48;8.20;;;6.70;;
2119;SDS011;1066;52.540;13.420;2023-08-07T03:12:09;18.10;;;14.87;;
2119;SDS011;1066;52.540;13.420;2023-08-07T03:15:27;21.60;;;17.70;;
2119;SDS011;1066;52.540;13.420;2023-08-07T03:18:45;25.73;;;19.17;;
2119;SDS011;1066;52.540;13.420;2023-08-07T03:22:04;24.50;;;19.53;;
2119;SDS011;1066;52.540;13.420;2023-08-07T03:25:22;17.53;;;15.10;;
2119;SDS011;1066;52.540;13.420;2023-08-07T03:28:40;24.20;;;19.27;;
2119;SDS011;1066;52.540;13.420;2023-08-07T03:31:58;15.57;;;12.33;;
2119;SDS011;1066;52.540;13.420;2023-08-07T03:35:16;12.93;;;11.37;;
2119;SDS011;1066;52.540;13.420;2023-08-07T03:38:34;29.20;;;22.37;;
2119;SDS011;1066;52.540;13.420;2023-08-07T03:41:52;18.13;;;15.40;;
2119;SDS011;1066;52.540;13.420;2023-08-07T03:45:09;25.47;;;16.17;;
2119;SDS011;1066;52.540;13.420;2023-08-07T03:48:27;15.07;;;13.50;;
2119;SDS011;1066;52.540;13.420;2023-08-07T03:51:45;12.60;;;10.93;;
2119;SDS011;1066;52.540;13.420;2023-08-07T03:55:03;9.10;;;7.73;;
2119;SDS011;1066;52.540;13.420;2023-08-07T03:58:21;15.27;;;12.73;;
2119;SDS011;1066;52.540;13.420;2023-08-07T04:01:39;12.10;;;10.90;;
2119;SDS011;1066;52.540;13.420;2023-08-07T04:04:57;27.07;;;19.53;;
2119;SDS011;1066;52.540;13.420;2023-08-07T04:08:18;52.73;;;39.27;;
2119;SDS011;1066;52.540;13.420;2023-08-07T04:11:36;21.90;;;18.37;;
2119;SDS011;1066;52.540;13.420;2023-08-07T04:14:54;14.43;;;12.43;;
2119;SDS011;1066;52.540;13.420;2023-08-07T04:18:12;16.77;;;13.70;;
2119;SDS011;1066;52.540;13.420;2023-08-07T04:21:32;30.43;;;24.80;;
2119;SDS011;1066;52.540;13.420;2023-08-07T04:24:50;20.53;;;16.17;;
2119;SDS011;1066;52.540;13.420;2023-08-07T04:28:08;23.20;;;20.27;;
2119;SDS011;1066;52.540;13.420;2023-08-07T04:31:25;19.20;;;12.80;;
2119;SDS011;1066;52.540;13.420;2023-08-07T04:34:43;21.50;;;15.87;;
2119;SDS011;1066;52.540;13.420;2023-08-07T04:38:01;18.97;;;17.00;;
2119;SDS011;1066;52.540;13.420;2023-08-07T04:41:20;26.30;;;21.07;;
2119;SDS011;1066;52.540;13.420;2023-08-07T04:44:38;22.13;;;17.83;;
2119;SDS011;1066;52.540;13.420;2023-08-07T04:47:56;22.43;;;17.40;;
2119;SDS011;1066;52.540;13.420;2023-08-07T04:51:14;15.50;;;13.90;;
2119;SDS011;1066;52.540;13.420;2023-08-07T04:54:31;14.60;;;10.23;;
2119;SDS011;1066;52.540;13.420;2023-08-07T04:57:50;15.73;;;13.73;;
2119;SDS011;1066;52.540;13.420;2023-08-07T05:01:08;9.90;;;8.90;;
2119;SDS011;1066;52.540;13.420;2023-08-07T05:04:26;9.70;;;7.77;;
2119;SDS011;1066;52.540;13.420;2023-08-07T05:07:46;10.20;;;9.10;;
2119;SDS011;1066;52.540;13.420;2023-08-07T05:11:04;10.63;;;9.30;;
2119;SDS011;1066;52.540;13.420;2023-08-07T05:14:21;9.20;;;7.87;;
2119;SDS011;1066;52.540;13.420;2023-08-07T05:17:39;11.70;;;8.20;;
2119;SDS011;1066;52.540;13.420;2023-08-07T05:20:57;10.70;;;7.93;;
2119;SDS011;1066;52.540;13.420;2023-08-07T05:24:16;9.53;;;7.90;;
2119;SDS011;1066;52.540;13.420;2023-08-07T05:27:34;7.47;;;6.73;;
2119;SDS011;1066;52.540;13.420;2023-08-07T05:30:52;7.50;;;6.80;;
2119;SDS011;1066;52.540;13.420;2023-08-07T05:34:10;54.13;;;38.23;;
2119;SDS011;1066;52.540;13.420;2023-08-07T05:37:32;38.80;;;29.10;;
2119;SDS011;1066;52.540;13.420;2023-08-07T05:40:50;32.87;;;25.63;;
2119;SDS011;1066;52.540;13.420;2023-08-07T05:44:07;61.60;;;45.80;;
2119;SDS011;1066;52.540;13.420;2023-08-07T05:47:25;19.80;;;14.27;;
2119;SDS011;1066;52.540;13.420;2023-08-07T05:50:43;35.23;;;27.00;;
2119;SDS011;1066;52.540;13.420;2023-08-07T05:54:01;35.37;;;28.87;;
2119;SDS011;1066;52.540;13.420;2023-08-07T05:57:19;9.80;;;8.77;;
2119;SDS011;1066;52.540;13.420;2023-08-07T06:00:37;15.70;;;13.50;;
2119;SDS011;1066;52.540;13.420;2023-08-07T06:03:57;10.20;;;7.60;;
2119;SDS011;1066;52.540;13.420;2023-08-07T06:07:15;16.93;;;12.80;;
2119;SDS011;1066;52.540;13.420;2023-08-07T06:10:33;11.07;;;8.73;;
2119;SDS011;1066;52.540;13.420;2023-08-07T06:13:51;15.33;;;12.33;;
2119;SDS011;1066;52.540;13.420;2023-08-07T06:17:09;12.53;;;9.40;;
2119;SDS011;1066;52.540;13.420;2023-08-07T06:20:27;8.13;;;7.10;;
2119;SDS011;1066;52.540;13.420;2023-08-07T06:23:45;11.77;;;9.50;;
2119;SDS011;1066;52.540;13.420;2023-08-07T06:27:03;11.20;;;9.10;;
2119;SDS011;1066;52.540;13.420;2023-08-07T06:30:21;9.20;;;6.47;;
2119;SDS011;1066;52.540;13.420;2023-08-07T06:33:40;13.20;;;7.03;;
2119;SDS011;1066;52.540;13.420;2023-08-07T06:36:59;7.90;;;7.10;;
2119;SDS011;1066;52.540;13.420;2023-08-07T06:40:17;7.27;;;5.47;;
2119;SDS011;1066;52.540;13.420;2023-08-07T06:43:35;7.30;;;6.60;;
2119;SDS011;1066;52.540;13.420;2023-08-07T06:46:54;6.83;;;5.10;;
2119;SDS011;1066;52.540;13.420;2023-08-07T06:50:13;6.00;;;5.40;;
2119;SDS011;1066;52.540;13.420;2023-08-07T06:53:31;6.80;;;4.10;;
2119;SDS011;1066;52.540;13.420;2023-08-07T06:56:49;5.03;;;4.53;;
2119;SDS011;1066;52.540;13.420;2023-08-07T07:00:07;4.40;;;4.00;;
2119;SDS011;1066;52.540;13.420;2023-08-07T07:03:25;5.10;;;3.73;;
2119;SDS011;1066;52.540;13.420;2023-08-07T07:06:43;3.40;;;3.10;;
2119;SDS011;1066;52.540;13.420;2023-08-07T07:10:01;4.10;;;3.17;;
2119;SDS011;1066;52.540;13.420;2023-08-07T07:13:19;5.20;;;3.10;;
2119;SDS011;1066;52.540;13.420;2023-08-07T07:16:36;3.67;;;3.03;;
2119;SDS011;1066;52.540;13.420;2023-08-07T07:19:54;4.03;;;2.87;;
2119;SDS011;1066;52.540;13.420;2023-08-07T07:23:12;3.70;;;3.03;;
2119;SDS011;1066;52.540;13.420;2023-08-07T07:26:31;2.47;;;2.07;;
2119;SDS011;1066;52.540;13.420;2023-08-07T07:29:51;5.20;;;2.60;;
2119;SDS011;1066;52.540;13.420;2023-08-07T07:33:09;4.03;;;2.57;;
2119;SDS011;1066;52.540;13.420;2023-08-07T07:36:26;4.00;;;2.50;;
2119;SDS011;1066;52.540;13.420;2023-08-07T07:39:44;3.00;;;2.60;;
2119;SDS011;1066;52.540;13.420;2023-08-07T07:43:02;4.60;;;2.50;;
2119;SDS011;1066;52.540;13.420;2023-08-07T07:46:22;4.80;;;2.60;;
2119;SDS011;1066;52.540;13.420;2023-08-07T07:49:45;3.80;;;2.27;;
2119;SDS011;1066;52.540;13.420;2023-08-07T07:53:03;3.60;;;2.83;;
2119;SDS011;1066;52.540;13.420;2023-08-07T07:56:20;4.30;;;2.97;;
2119;SDS011;1066;52.540;13.420;2023-08-07T07:59:38;3.70;;;2.60;;
2119;SDS011;1066;52.540;13.420;2023-08-07T08:02:56;3.03;;;2.17;;
2119;SDS011;1066;52.540;13.420;2023-08-07T08:06:14;3.80;;;3.33;;
2119;SDS011;1066;52.540;13.420;2023-08-07T08:09:32;3.30;;;2.40;;
2119;SDS011;1066;52.540;13.420;2023-08-07T08:12:50;2.90;;;2.30;;
2119;SDS011;1066;52.540;13.420;2023-08-07T08:16:08;2.80;;;2.37;;
2119;SDS011;1066;52.540;13.420;2023-08-07T08:19:26;4.60;;;2.97;;
2119;SDS011;1066;52.540;13.420;2023-08-07T08:22:44;3.07;;;2.60;;
2119;SDS011;1066;52.540;13.420;2023-08-07T08:26:02;3.93;;;2.70;;
2119;SDS011;1066;52.540;13.420;2023-08-07T08:29:20;6.50;;;2.17;;
2119;SDS011;1066;52.540;13.420;2023-08-07T08:32:38;5.33;;;3.03;;
2119;SDS011;1066;52.540;13.420;2023-08-07T08:35:56;4.90;;;3.20;;
2119;SDS011;1066;52.540;13.420;2023-08-07T08:39:14;5.27;;;3.23;;
2119;SDS011;1066;52.540;13.420;2023-08-07T08:42:33;4.17;;;2.63;;
2119;SDS011;1066;52.540;13.420;2023-08-07T08:45:51;4.93;;;2.70;;
2119;SDS011;1066;52.540;13.420;2023-08-07T08:49:10;3.87;;;3.43;;
2119;SDS011;1066;52.540;13.420;2023-08-07T08:52:30;4.40;;;3.30;;
2119;SDS011;1066;52.540;13.420;2023-08-07T08:55:49;4.60;;;2.83;;
2119;SDS011;1066;52.540;13.420;2023-08-07T08:59:07;5.93;;;3.27;;
2119;SDS011;1066;52.540;13.420;2023-08-07T09:02:26;3.83;;;2.13;;
2119;SDS011;1066;52.540;13.420;2023-08-07T09:05:45;4.97;;;2.80;;
2119;SDS011;1066;52.540;13.420;2023-08-07T09:09:03;2.67;;;2.30;;
2119;SDS011;1066;52.540;13.420;2023-08-07T09:12:25;6.70;;;3.10;;
2119;SDS011;1066;52.540;13.420;2023-08-07T09:15:43;2.40;;;2.20;;
2119;SDS011;1066;52.540;13.420;2023-08-07T09:19:02;4.27;;;3.10;;
2119;SDS011;1066;52.540;13.420;2023-08-07T09:22:20;3.23;;;2.97;;
2119;SDS011;1066;52.540;13.420;2023-08-07T09:25:39;3.77;;;3.17;;
2119;SDS011;1066;52.540;13.420;2023-08-07T09:28:58;3.23;;;2.23;;
2119;SDS011;1066;52.540;13.420;2023-08-07T09:32:16;5.40;;;2.90;;
2119;SDS011;1066;52.540;13.420;2023-08-07T09:35:35;4.10;;;3.70;;
2119;SDS011;1066;52.540;13.420;2023-08-07T09:38:54;3.23;;;2.13;;
2119;SDS011;1066;52.540;13.420;2023-08-07T09:42:13;5.47;;;2.30;;
2119;SDS011;1066;52.540;13.420;2023-08-07T09:45:32;2.30;;;2.10;;
2119;SDS011;1066;52.540;13.420;2023-08-07T09:48:50;3.93;;;2.83;;
2119;SDS011;1066;52.540;13.420;2023-08-07T09:52:09;4.00;;;2.20;;
2119;SDS011;1066;52.540;13.420;2023-08-07T09:55:27;3.70;;;2.20;;
2119;SDS011;1066;52.540;13.420;2023-08-07T09:58:48;3.30;;;2.90;;
2119;SDS011;1066;52.540;13.420;2023-08-07T10:02:06;3.17;;;2.40;;
2119;SDS011;1066;52.540;13.420;2023-08-07T10:05:24;3.23;;;2.40;;
2119;SDS011;1066;52.540;13.420;2023-08-07T10:08:43;3.77;;;2.23;;
2119;SDS011;1066;52.540;13.420;2023-08-07T10:12:02;2.50;;;1.90;;
2119;SDS011;1066;52.540;13.420;2023-08-07T10:15:20;4.70;;;2.40;;
2119;SDS011;1066;52.540;13.420;2023-08-07T10:18:38;2.30;;;2.10;;
2119;SDS011;1066;52.540;13.420;2023-08-07T10:21:56;3.43;;;2.50;;
2119;SDS011;1066;52.540;13.420;2023-08-07T10:25:14;2.57;;;1.90;;
2119;SDS011;1066;52.540;13.420;2023-08-07T10:28:33;2.87;;;2.57;;
2119;SDS011;1066;52.540;13.420;2023-08-07T10:31:52;3.57;;;2.33;;
2119;SDS011;1066;52.540;13.420;2023-08-07T10:35:30;4.77;;;2.20;;
2119;SDS011;1066;52.540;13.420;2023-08-07T10:38:49;2.83;;;2.20;;
2119;SDS011;1066;52.540;13.420;2023-08-07T10:42:26;2.57;;;2.37;;
2119;SDS011;1066;52.540;13.420;2023-08-07T10:45:43;3.20;;;2.17;;
2119;SDS011;1066;52.540;13.420;2023-08-07T10:49:30;2.30;;;2.10;;
2119;SDS011;1066;52.540;13.420;2023-08-07T10:53:04;2.47;;;2.03;;
2119;SDS011;1066;52.540;13.420;2023-08-07T10:56:40;3.63;;;1.80;;
2119;SDS011;1066;52.540;13.420;2023-08-07T11:03:20;2.80;;;1.90;;
2119;SDS011;1066;52.540;13.420;2023-08-07T11:06:40;2.77;;;1.80;;
2119;SDS011;1066;52.540;13.420;2023-08-07T11:09:58;2.47;;;2.13;;
2119;SDS011;1066;52.540;13.420;2023-08-07T11:13:17;3.00;;;1.97;;
2119;SDS011;1066;52.540;13.420;2023-08-07T11:16:35;3.20;;;2.73;;
2119;SDS011;1066;52.540;13.420;2023-08-07T11:19:54;4.83;;;2.90;;
2119;SDS011;1066;52.540;13.420;2023-08-07T11:23:13;3.83;;;2.47;;
2119;SDS011;1066;52.540;13.420;2023-08-07T11:26:31;3.17;;;2.60;;
2119;SDS011;1066;52.540;13.420;2023-08-07T11:29:49;4.60;;;3.20;;
2119;SDS011;1066;52.540;13.420;2023-08-07T11:33:07;3.10;;;2.80;;
2119;SDS011;1066;52.540;13.420;2023-08-07T11:36:25;4.33;;;2.70;;
2119;SDS011;1066;52.540;13.420;2023-08-07T11:39:43;3.70;;;2.60;;
2119;SDS011;1066;52.540;13.420;2023-08-07T11:43:01;4.80;;;3.03;;
2119;SDS011;1066;52.540;13.420;2023-08-07T11:46:19;3.53;;;2.80;;
2119;SDS011;1066;52.540;13.420;2023-08-07T11:49:39;4.00;;;2.87;;
2119;SDS011;1066;52.540;13.420;2023-08-07T11:52:57;6.23;;;2.70;;
2119;SDS011;1066;52.540;13.420;2023-08-07T11:56:21;3.37;;;2.40;;
2119;SDS011;1066;52.540;13.420;2023-08-07T11:59:46;3.60;;;2.40;;
2119;SDS011;1066;52.540;13.420;2023-08-07T12:03:22;4.43;;;2.70;;
2119;SDS011;1066;52.540;13.420;2023-08-07T12:06:54;4.30;;;2.93;;
2119;SDS011;1066;52.540;13.420;2023-08-07T12:10:13;4.13;;;2.40;;
2119;SDS011;1066;52.540;13.420;2023-08-07T12:13:38;3.73;;;2.50;;
2119;SDS011;1066;52.540;13.420;2023-08-07T12:16:56;3.60;;;2.70;;
2119;SDS011;1066;52.540;13.420;2023-08-07T12:20:15;2.50;;;1.90;;
2119;SDS011;1066;52.540;13.420;2023-08-07T12:23:34;3.50;;;3.10;;
2119;SDS011;1066;52.540;13.420;2023-08-07T12:26:52;3.93;;;2.03;;
2119;SDS011;1066;52.540;13.420;2023-08-07T12:30:12;2.90;;;2.50;;
2119;SDS011;1066;52.540;13.420;2023-08-07T12:33:31;7.30;;;3.13;;
2119;SDS011;1066;52.540;13.420;2023-08-07T12:36:50;4.70;;;2.40;;
2119;SDS011;1066;52.540;13.420;2023-08-07T12:40:09;5.53;;;2.90;;
2119;SDS011;1066;52.540;13.420;2023-08-07T12:43:28;8.60;;;2.67;;
2119;SDS011;1066;52.540;13.420;2023-08-07T12:46:46;4.00;;;3.00;;
2119;SDS011;1066;52.540;13.420;2023-08-07T12:50:04;4.50;;;2.80;;
2119;SDS011;1066;52.540;13.420;2023-08-07T12:53:21;4.63;;;2.80;;
2119;SDS011;1066;52.540;13.420;2023-08-07T12:56:39;6.47;;;3.27;;
2119;SDS011;1066;52.540;13.420;2023-08-07T12:59:57;3.73;;;2.17;;
2119;SDS011;1066;52.540;13.420;2023-08-07T13:03:15;3.83;;;2.63;;
2119;SDS011;1066;52.540;13.420;2023-08-07T13:06:33;5.70;;;3.50;;
2119;SDS011;1066;52.540;13.420;2023-08-07T13:09:51;3.97;;;2.30;;
2119;SDS011;1066;52.540;13.420;2023-08-07T13:13:09;8.70;;;3.23;;
2119;SDS011;1066;52.540;13.420;2023-08-07T13:16:27;5.03;;;2.80;;
2119;SDS011;1066;52.540;13.420;2023-08-07T13:19:45;3.60;;;2.43;;
2119;SDS011;1066;52.540;13.420;2023-08-07T13:23:02;6.43;;;2.80;;
2119;SDS011;1066;52.540;13.420;2023-08-07T13:26:20;6.73;;;3.03;;
2119;SDS011;1066;52.540;13.420;2023-08-07T13:29:38;3.83;;;2.37;;
2119;SDS011;1066;52.540;13.420;2023-08-07T13:32:56;7.43;;;2.87;;
2119;SDS011;1066;52.540;13.420;2023-08-07T13:36:14;5.80;;;2.63;;
2119;SDS011;1066;52.540;13.420;2023-08-07T13:39:33;5.50;;;3.70;;
2119;SDS011;1066;52.540;13.420;2023-08-07T13:42:51;4.33;;;2.67;;
2119;SDS011;1066;52.540;13.420;2023-08-07T13:46:08;6.37;;;3.00;;
2119;SDS011;1066;52.540;13.420;2023-08-07T13:49:26;5.43;;;2.70;;
2119;SDS011;1066;52.540;13.420;2023-08-07T13:52:45;3.83;;;3.07;;
2119;SDS011;1066;52.540;13.420;2023-08-07T13:56:03;4.57;;;3.10;;
2119;SDS011;1066;52.540;13.420;2023-08-07T13:59:21;5.43;;;2.73;;
2119;SDS011;1066;52.540;13.420;2023-08-07T14:02:39;6.03;;;3.30;;
2119;SDS011;1066;52.540;13.420;2023-08-07T14:05:57;3.20;;;2.57;;
2119;SDS011;1066;52.540;13.420;2023-08-07T14:09:15;9.57;;;3.27;;
2119;SDS011;1066;52.540;13.420;2023-08-07T14:12:33;7.50;;;3.50;;
2119;SDS011;1066;52.540;13.420;2023-08-07T14:15:51;5.57;;;3.40;;
2119;SDS011;1066;52.540;13.420;2023-08-07T14:19:09;5.13;;;3.27;;
2119;SDS011;1066;52.540;13.420;2023-08-07T14:22:29;7.40;;;3.33;;
2119;SDS011;1066;52.540;13.420;2023-08-07T14:25:47;8.47;;;2.70;;
2119;SDS011;1066;52.540;13.420;2023-08-07T14:29:05;5.60;;;3.07;;
2119;SDS011;1066;52.540;13.420;2023-08-07T14:32:23;5.07;;;3.57;;
2119;SDS011;1066;52.540;13.420;2023-08-07T14:35:42;6.30;;;3.00;;
2119;SDS011;1066;52.540;13.420;2023-08-07T14:39:00;7.10;;;2.73;;
2119;SDS011;1066;52.540;13.420;2023-08-07T14:42:18;4.20;;;2.80;;
2119;SDS011;1066;52.540;13.420;2023-08-07T14:45:36;6.30;;;3.13;;
2119;SDS011;1066;52.540;13.420;2023-08-07T14:48:54;4.67;;;3.00;;
2119;SDS011;1066;52.540;13.420;2023-08-07T14:52:11;5.47;;;3.03;;
2119;SDS011;1066;52.540;13.420;2023-08-07T14:55:29;6.60;;;3.70;;
2119;SDS011;1066;52.540;13.420;2023-08-07T14:58:48;7.57;;;3.77;;
2119;SDS011;1066;52.540;13.420;2023-08-07T15:02:05;6.60;;;3.60;;
2119;SDS011;1066;52.540;13.420;2023-08-07T15:05:23;5.37;;;3.13;;
2119;SDS011;1066;52.540;13.420;2023-08-07T15:08:44;6.10;;;2.93;;
2119;SDS011;1066;52.540;13.420;2023-08-07T15:12:02;5.13;;;3.03;;
2119;SDS011;1066;52.540;13.420;2023-08-07T15:15:20;6.60;;;3.77;;
2119;SDS011;1066;52.540;13.420;2023-08-07T15:18:39;6.83;;;2.73;;
2119;SDS011;1066;52.540;13.420;2023-08-07T15:21:57;5.57;;;2.70;;
2119;SDS011;1066;52.540;13.420;2023-08-07T15:25:15;4.93;;;3.17;;
2119;SDS011;1066;52.540;13.420;2023-08-07T15:28:33;7.97;;;3.70;;
2119;SDS011;1066;52.540;13.420;2023-08-07T15:31:51;7.97;;;3.40;;
2119;SDS011;1066;52.540;13.420;2023-08-07T15:35:09;6.20;;;3.30;;
2119;SDS011;1066;52.540;13.420;2023-08-07T15:38:26;7.87;;;2.70;;
2119;SDS011;1066;52.540;13.420;2023-08-07T15:41:44;5.07;;;3.40;;
2119;SDS011;1066;52.540;13.420;2023-08-07T15:45:02;3.90;;;2.50;;
2119;SDS011;1066;52.540;13.420;2023-08-07T15:48:20;3.97;;;2.43;;
2119;SDS011;1066;52.540;13.420;2023-08-07T15:51:38;4.30;;;3.07;;
2119;SDS011;1066;52.540;13.420;2023-08-07T15:54:56;4.50;;;3.43;;
2119;SDS011;1066;52.540;13.420;2023-08-07T15:58:14;6.60;;;4.20;;
2119;SDS011;1066;52.540;13.420;2023-08-07T16:01:32;5.17;;;2.83;;
2119;SDS011;1066;52.540;13.420;2023-08-07T16:04:50;4.80;;;2.93;;
2119;SDS011;1066;52.540;13.420;2023-08-07T16:08:08;6.43;;;3.60;;
2119;SDS011;1066;52.540;13.420;2023-08-07T16:11:26;5.90;;;3.70;;
2119;SDS011;1066;52.540;13.420;2023-08-07T16:14:44;6.90;;;3.07;;
2119;SDS011;1066;52.540;13.420;2023-08-07T16:18:02;9.10;;;3.23;;
2119;SDS011;1066;52.540;13.420;2023-08-07T16:21:20;5.10;;;2.90;;
2119;SDS011;1066;52.540;13.420;2023-08-07T16:24:38;7.27;;;4.00;;
2119;SDS011;1066;52.540;13.420;2023-08-07T16:27:56;6.90;;;3.27;;
2119;SDS011;1066;52.540;13.420;2023-08-07T16:31:14;4.40;;;2.90;;
2119;SDS011;1066;52.540;13.420;2023-08-07T16:34:36;4.50;;;3.20;;
2119;SDS011;1066;52.540;13.420;2023-08-07T16:37:54;5.80;;;2.87;;
2119;SDS011;1066;52.540;13.420;2023-08-07T16:41:16;5.67;;;2.93;;
2119;SDS011;1066;52.540;13.420;2023-08-07T16:44:34;4.57;;;2.67;;
2119;SDS011;1066;52.540;13.420;2023-08-07T16:47:52;4.80;;;3.10;;
2119;SDS011;1066;52.540;13.420;2023-08-07T16:51:11;5.63;;;3.80;;
2119;SDS011;1066;52.540;13.420;2023-08-07T16:54:29;7.50;;;3.63;;
2119;SDS011;1066;52.540;13.420;2023-08-07T16:57:48;5.40;;;3.60;;
2119;SDS011;1066;52.540;13.420;2023-08-07T17:01:08;4.80;;;3.20;;
2119;SDS011;1066;52.540;13.420;2023-08-07T17:04:26;5.50;;;4.07;;
2119;SDS011;1066;52.540;13.420;2023-08-07T17:07:47;4.10;;;2.80;;
2119;SDS011;1066;52.540;13.420;2023-08-07T17:11:05;5.87;;;4.10;;
2119;SDS011;1066;52.540;13.420;2023-08-07T17:14:23;6.27;;;4.00;;
2119;SDS011;1066;52.540;13.420;2023-08-07T17:17:41;4.60;;;3.60;;
2119;SDS011;1066;52.540;13.420;2023-08-07T17:20:59;4.70;;;3.13;;
2119;SDS011;1066;52.540;13.420;2023-08-07T17:24:17;5.90;;;3.20;;
2119;SDS011;1066;52.540;13.420;2023-08-07T17:27:35;6.23;;;2.97;;
2119;SDS011;1066;52.540;13.420;2023-08-07T17:30:54;6.87;;;3.17;;
2119;SDS011;1066;52.540;13.420;2023-08-07T17:34:12;5.37;;;2.83;;
2119;SDS011;1066;52.540;13.420;2023-08-07T17:37:30;12.43;;;3.10;;
2119;SDS011;1066;52.540;13.420;2023-08-07T17:40:48;3.43;;;2.50;;
2119;SDS011;1066;52.540;13.420;2023-08-07T17:44:06;4.10;;;2.77;;
2119;SDS011;1066;52.540;13.420;2023-08-07T17:47:24;5.23;;;2.73;;
2119;SDS011;1066;52.540;13.420;2023-08-07T17:50:48;3.80;;;2.70;;
2119;SDS011;1066;52.540;13.420;2023-08-07T17:54:08;6.60;;;3.40;;
2119;SDS011;1066;52.540;13.420;2023-08-07T17:57:26;6.20;;;3.03;;
2119;SDS011;1066;52.540;13.420;2023-08-07T18:00:44;4.77;;;2.90;;
2119;SDS011;1066;52.540;13.420;2023-08-07T18:04:02;5.53;;;2.77;;
2119;SDS011;1066;52.540;13.420;2023-08-07T18:07:20;4.83;;;2.70;;
2119;SDS011;1066;52.540;13.420;2023-08-07T18:10:38;5.60;;;2.67;;
2119;SDS011;1066;52.540;13.420;2023-08-07T18:13:56;6.07;;;3.40;;
2119;SDS011;1066;52.540;13.420;2023-08-07T18:17:14;6.00;;;3.47;;
2119;SDS011;1066;52.540;13.420;2023-08-07T18:20:32;2.80;;;2.57;;
2119;SDS011;1066;52.540;13.420;2023-08-07T18:23:49;7.47;;;3.30;;
2119;SDS011;1066;52.540;13.420;2023-08-07T18:27:08;7.07;;;3.50;;
2119;SDS011;1066;52.540;13.420;2023-08-07T18:30:26;4.93;;;3.30;;
2119;SDS011;1066;52.540;13.420;2023-08-07T18:33:45;5.30;;;2.80;;
2119;SDS011;1066;52.540;13.420;2023-08-07T18:37:03;4.27;;;2.83;;
2119;SDS011;1066;52.540;13.420;2023-08-07T18:40:22;6.80;;;3.50;;
2119;SDS011;1066;52.540;13.420;2023-08-07T18:43:39;10.40;;;3.40;;
2119;SDS011;1066;52.540;13.420;2023-08-07T18:46:57;5.03;;;2.80;;
2119;SDS011;1066;52.540;13.420;2023-08-07T18:50:16;2.70;;;2.43;;
2119;SDS011;1066;52.540;13.420;2023-08-07T18:53:34;3.40;;;2.70;;
2119;SDS011;1066;52.540;13.420;2023-08-07T18:56:52;6.73;;;2.23;;
2119;SDS011;1066;52.540;13.420;2023-08-07T19:00:09;5.07;;;2.53;;
2119;SDS011;1066;52.540;13.420;2023-08-07T19:03:29;6.27;;;2.83;;
2119;SDS011;1066;52.540;13.420;2023-08-07T19:06:48;6.37;;;2.60;;
2119;SDS011;1066;52.540;13.420;2023-08-07T19:10:06;4.60;;;3.27;;
2119;SDS011;1066;52.540;13.420;2023-08-07T19:13:24;4.80;;;2.67;;
2119;SDS011;1066;52.540;13.420;2023-08-07T19:16:42;5.63;;;3.37;;
2119;SDS011;1066;52.540;13.420;2023-08-07T19:19:59;8.77;;;3.50;;
2119;SDS011;1066;52.540;13.420;2023-08-07T19:23:17;4.53;;;3.43;;
2119;SDS011;1066;52.540;13.420;2023-08-07T19:26:35;6.80;;;2.80;;
2119;SDS011;1066;52.540;13.420;2023-08-07T19:29:53;6.07;;;2.10;;
2119;SDS011;1066;52.540;13.420;2023-08-07T19:33:11;3.70;;;2.40;;
2119;SDS011;1066;52.540;13.420;2023-08-07T19:36:29;7.90;;;2.90;;
2119;SDS011;1066;52.540;13.420;2023-08-07T19:39:49;4.93;;;2.53;;
2119;SDS011;1066;52.540;13.420;2023-08-07T19:43:07;6.30;;;3.50;;
2119;SDS011;1066;52.540;13.420;2023-08-07T19:46:25;3.90;;;2.73;;
2119;SDS011;1066;52.540;13.420;2023-08-07T19:49:42;4.83;;;2.70;;
2119;SDS011;1066;52.540;13.420;2023-08-07T19:53:01;4.90;;;2.80;;
2119;SDS011;1066;52.540;13.420;2023-08-07T19:56:19;5.27;;;2.60;;
2119;SDS011;1066;52.540;13.420;2023-08-07T19:59:37;4.77;;;2.50;;
2119;SDS011;1066;52.540;13.420;2023-08-07T20:02:58;5.97;;;2.60;;
2119;SDS011;1066;52.540;13.420;2023-08-07T20:06:15;4.80;;;3.23;;
2119;SDS011;1066;52.540;13.420;2023-08-07T20:09:35;6.20;;;3.40;;
2119;SDS011;1066;52.540;13.420;2023-08-07T20:12:53;3.33;;;2.63;;
2119;SDS011;1066;52.540;13.420;2023-08-07T20:16:13;7.20;;;3.00;;